ADDS METAR Data INFO
IDs: Format: Raw Decoded Include TAF

Data at: 1053 UTC 19 Oct 2017

KDMW 191045Z AUTO 00000KT 10SM CLR 08/06 A3026 RMK AO2
KDMW 191025Z AUTO 00000KT 10SM CLR 09/06 A3026 RMK AO2
KDMW 191005Z AUTO 22003KT 10SM CLR 10/05 A3026 RMK AO2
KDMW 190945Z AUTO 22003KT 10SM CLR 09/06 A3026 RMK AO2
KDMW 190925Z AUTO 00000KT 10SM CLR 09/06 A3026 RMK AO2
KDMW 190905Z AUTO 00000KT 10SM CLR 09/06 A3026 RMK AO2
KDMW 190845Z AUTO 00000KT 10SM CLR 10/06 A3026 RMK AO2
KDMW 190825Z AUTO 21003KT 10SM CLR 11/06 A3026 RMK AO2
KDMW 190805Z AUTO 00000KT 10SM CLR 10/06 A3026 RMK AO2
KDMW 190745Z AUTO 00000KT 10SM CLR 11/06 A3026 RMK AO2
KDMW 190725Z AUTO 00000KT 10SM CLR 11/07 A3027 RMK AO2
KDMW 190705Z AUTO 18003KT 10SM CLR 11/07 A3027 RMK AO2
KDMW 190645Z AUTO 18003KT 10SM CLR 11/07 A3027 RMK AO2
KDMW 190625Z AUTO 19004KT 10SM CLR 12/07 A3027 RMK AO2
KDMW 190605Z AUTO 19003KT 10SM CLR 12/07 A3028 RMK AO2
KDMW 190545Z AUTO 19004KT 10SM CLR 12/07 A3028 RMK AO2
KDMW 190525Z AUTO 21003KT 10SM CLR 11/07 A3029 RMK AO2
KDMW 190505Z AUTO 19003KT 10SM CLR 12/07 A3029 RMK AO2
KDMW 190445Z AUTO 19004KT 10SM CLR 13/07 A3029 RMK AO2
KDMW 190425Z AUTO 20003KT 10SM CLR 13/07 A3029 RMK AO2
KDMW 190405Z AUTO 19003KT 10SM CLR 13/07 A3030 RMK AO2
KDMW 190345Z AUTO 19004KT 10SM CLR 13/07 A3030 RMK AO2
KDMW 190325Z AUTO 19004KT 10SM CLR 13/07 A3030 RMK AO2
KDMW 190305Z AUTO 18004KT 10SM CLR 14/07 A3031 RMK AO2
KDMW 190245Z AUTO 20004KT 10SM CLR 13/07 A3030 RMK AO2
KDMW 190225Z AUTO 18003KT 10SM CLR 14/07 A3030 RMK AO2
KDMW 190205Z AUTO 18005KT 10SM CLR 14/07 A3030 RMK AO2
KDMW 190145Z AUTO 18003KT 10SM CLR 14/07 A3030 RMK AO2
KDMW 190125Z AUTO 17003KT 10SM CLR 14/07 A3030 RMK AO2
KDMW 190105Z AUTO 18003KT 10SM CLR 14/07 A3031 RMK AO2
KDMW 190045Z AUTO 17003KT 10SM CLR 14/08 A3031 RMK AO2
KDMW 190025Z AUTO 00000KT 10SM CLR 14/08 A3031 RMK AO2
KDMW 190005Z AUTO 00000KT 10SM CLR 14/08 A3031 RMK AO2
KDMW 182345Z AUTO 00000KT 10SM CLR 16/08 A3030 RMK AO2
KDMW 182325Z AUTO 00000KT 10SM CLR 16/07 A3029 RMK AO2
KDMW 182305Z AUTO 00000KT 10SM CLR 17/07 A3029 RMK AO2
KDMW 182245Z AUTO 00000KT 10SM CLR 17/07 A3029 RMK AO2
KDMW 182225Z AUTO 19004KT 10SM CLR 18/07 A3029 RMK AO2
KDMW 182205Z AUTO 19004KT 10SM CLR 19/08 A3029 RMK AO2
KDMW 182145Z AUTO 20005KT 10SM CLR 21/08 A3029 RMK AO2
KDMW 182125Z AUTO 20006KT 10SM CLR 21/08 A3029 RMK AO2
KDMW 182105Z AUTO 23007KT 10SM CLR 22/08 A3029 RMK AO2
KDMW 182045Z AUTO 22008KT 10SM CLR 22/08 A3029 RMK AO2
KDMW 182025Z AUTO 23006KT 10SM CLR 22/08 A3030 RMK AO2
KDMW 182005Z AUTO 21006KT 10SM CLR 22/08 A3030 RMK AO2
KDMW 181945Z AUTO 21006KT 10SM CLR 22/07 A3030 RMK AO2
KDMW 181925Z AUTO 21007KT 10SM CLR 22/07 A3031 RMK AO2
KDMW 181905Z AUTO 17004KT 10SM CLR 22/07 A3031 RMK AO2
KDMW 181845Z AUTO 19005KT 10SM CLR 21/07 A3032 RMK AO2
KDMW 181825Z AUTO 21003KT 10SM CLR 20/07 A3032 RMK AO2
KDMW 181805Z AUTO 21004KT 10SM CLR 20/06 A3033 RMK AO2
KDMW 181745Z AUTO 19005KT 10SM CLR 20/07 A3033 RMK AO2
KDMW 181725Z AUTO 00000KT 10SM CLR 19/07 A3035 RMK AO2
KDMW 181705Z AUTO 24003KT 10SM CLR 19/07 A3036 RMK AO2
KDMW 181645Z AUTO 20004KT 10SM CLR 18/07 A3036 RMK AO2
KDMW 181625Z AUTO 00000KT 10SM CLR 17/07 A3037 RMK AO2
KDMW 181605Z AUTO 24003KT 10SM CLR 17/07 A3038 RMK AO2
KDMW 181545Z AUTO 23003KT 10SM CLR 17/07 A3038 RMK AO2
KDMW 181525Z AUTO 20003KT 10SM CLR 16/07 A3038 RMK AO2
KDMW 181505Z AUTO 23003KT 10SM CLR 15/07 A3038 RMK AO2
KDMW 181445Z AUTO 22003KT 10SM CLR 14/07 A3038 RMK AO2
KDMW 181425Z AUTO 23003KT 10SM CLR 13/06 A3038 RMK AO2
KDMW 181405Z AUTO 23003KT 10SM CLR 12/06 A3038 RMK AO2
KDMW 181345Z AUTO 22003KT 10SM CLR 11/06 A3038 RMK AO2
KDMW 181325Z AUTO 21003KT 10SM CLR 11/05 A3038 RMK AO2
KDMW 181305Z AUTO 00000KT 10SM CLR 09/05 A3038 RMK AO2
KDMW 181245Z AUTO 00000KT 10SM CLR 09/04 A3037 RMK AO2
KDMW 181225Z AUTO 00000KT 10SM CLR 07/04 A3037 RMK AO2
KDMW 181205Z AUTO 00000KT 10SM CLR 06/03 A3036 RMK AO2
KDMW 181145Z AUTO 00000KT 10SM CLR 06/03 A3036 RMK AO2
KDMW 181125Z AUTO 00000KT 10SM CLR 06/03 A3036 RMK AO2
KDMW 181105Z AUTO 00000KT 10SM CLR 06/03 A3035 RMK AO2
KDMW 181045Z AUTO 00000KT 10SM CLR 07/04 A3035 RMK AO2
KDMW 181025Z AUTO 00000KT 10SM CLR 06/03 A3034 RMK AO2
KDMW 181005Z AUTO 00000KT 10SM CLR 06/03 A3033 RMK AO2
KDMW 180945Z AUTO 00000KT 10SM CLR 06/03 A3033 RMK AO2
KDMW 180925Z AUTO 00000KT 10SM CLR 06/04 A3033 RMK AO2
KDMW 180905Z AUTO 00000KT 10SM CLR 06/04 A3032 RMK AO2
KDMW 180845Z AUTO 00000KT 10SM CLR 06/03 A3032 RMK AO2
KDMW 180825Z AUTO 00000KT 10SM CLR 06/03 A3031 RMK AO2
KDMW 180805Z AUTO 00000KT 10SM CLR 06/03 A3031 RMK AO2
KDMW 180745Z AUTO 00000KT 10SM CLR 07/03 A3031 RMK AO2
KDMW 180725Z AUTO 00000KT 10SM CLR 06/03 A3031 RMK AO2
KDMW 180705Z AUTO 00000KT 10SM CLR 07/03 A3031 RMK AO2
KDMW 180645Z AUTO 00000KT 10SM CLR 07/03 A3031 RMK AO2
KDMW 180625Z AUTO 00000KT 10SM CLR 07/03 A3032 RMK AO2
KDMW 180605Z AUTO 00000KT 10SM CLR 07/03 A3032 RMK AO2
KDMW 180545Z AUTO 00000KT 10SM CLR 08/04 A3032 RMK AO2
KDMW 180525Z AUTO 00000KT 10SM CLR 09/02 A3032 RMK AO2
KDMW 180505Z AUTO 22003KT 10SM CLR 09/02 A3032 RMK AO2
KDMW 180445Z AUTO 00000KT 10SM CLR 09/02 A3032 RMK AO2
KDMW 180425Z AUTO 21003KT 10SM CLR 09/02 A3032 RMK AO2
KDMW 180405Z AUTO 23003KT 10SM CLR 09/02 A3032 RMK AO2
KDMW 180345Z AUTO 21003KT 10SM CLR 09/02 A3033 RMK AO2
KDMW 180325Z AUTO 00000KT 10SM CLR 09/02 A3032 RMK AO2
KDMW 180305Z AUTO 20004KT 10SM CLR 09/03 A3032 RMK AO2
KDMW 180245Z AUTO 00000KT 10SM CLR 09/04 A3032 RMK AO2
KDMW 180225Z AUTO 00000KT 10SM CLR 08/04 A3032 RMK AO2
KDMW 180205Z AUTO 00000KT 10SM CLR 09/03 A3032 RMK AO2
KDMW 180145Z AUTO 00000KT 10SM CLR 09/04 A3031 RMK AO2
KDMW 180125Z AUTO 00000KT 10SM CLR 09/04 A3031 RMK AO2
KDMW 180105Z AUTO 00000KT 10SM CLR 09/04 A3030 RMK AO2
KDMW 180045Z AUTO 00000KT 10SM CLR 09/05 A3030 RMK AO2
KDMW 180025Z AUTO 00000KT 10SM CLR 11/04 A3030 RMK AO2
KDMW 180005Z AUTO 00000KT 10SM CLR 11/03 A3029 RMK AO2
KDMW 172345Z AUTO 00000KT 10SM CLR 11/03 A3028 RMK AO2
KDMW 172325Z AUTO 00000KT 10SM CLR 12/02 A3028 RMK AO2
KDMW 172305Z AUTO 00000KT 10SM CLR 13/03 A3028 RMK AO2